createdAt,value
2018-05-02T00:00:33.174Z,0.00
2018-05-02T00:02:26.116Z,0.00
2018-05-02T00:03:26.100Z,0.00
2018-05-02T00:05:19.052Z,0.00
2018-05-02T00:06:19.049Z,0.00
2018-05-02T00:08:11.979Z,0.00
2018-05-02T00:09:11.989Z,0.00
2018-05-02T00:11:04.928Z,0.00
2018-05-02T00:12:04.914Z,0.00
2018-05-02T00:13:57.856Z,0.00
2018-05-02T00:14:57.850Z,0.00
2018-05-02T00:16:50.788Z,0.00
2018-05-02T00:17:50.783Z,0.00
2018-05-02T00:19:43.737Z,0.00
2018-05-02T00:20:43.806Z,0.00
2018-05-02T00:22:36.652Z,0.00
2018-05-02T00:23:36.658Z,0.00
2018-05-02T00:25:29.605Z,0.00
2018-05-02T00:26:29.591Z,0.00
2018-05-02T00:28:22.514Z,0.00
2018-05-02T00:29:22.520Z,0.00
2018-05-02T00:31:15.476Z,0.00
2018-05-02T00:32:15.527Z,0.00
2018-05-02T00:34:08.463Z,0.00
2018-05-02T00:35:08.397Z,0.00
2018-05-02T00:36:08.421Z,0.00
2018-05-02T00:37:08.441Z,0.00
2018-05-02T00:38:08.448Z,0.00
2018-05-02T00:39:08.462Z,0.00
2018-05-02T00:40:08.478Z,0.00
2018-05-02T00:41:08.495Z,0.00
2018-05-02T00:42:08.514Z,0.00
2018-05-02T00:43:08.533Z,0.00
2018-05-02T00:44:08.554Z,0.00
2018-05-02T00:45:08.556Z,0.00
2018-05-02T00:46:08.578Z,0.00
2018-05-02T00:47:08.594Z,0.00
2018-05-02T00:48:08.606Z,0.00
2018-05-02T00:49:08.626Z,0.00
2018-05-02T00:50:08.641Z,0.00
2018-05-02T00:51:08.655Z,0.00
2018-05-02T00:52:08.674Z,0.00
2018-05-02T00:53:08.686Z,0.00
2018-05-02T00:54:08.707Z,0.00
2018-05-02T00:55:08.721Z,0.00
2018-05-02T00:56:08.756Z,0.00
2018-05-02T00:57:08.757Z,0.00
2018-05-02T00:58:08.778Z,0.00
2018-05-02T00:59:08.786Z,0.00
2018-05-02T01:00:08.807Z,0.00
2018-05-02T01:01:08.814Z,0.00
2018-05-02T01:02:08.831Z,0.00
2018-05-02T01:03:08.851Z,0.00
2018-05-02T01:04:08.863Z,0.00
2018-05-02T01:05:08.887Z,0.00
2018-05-02T01:06:08.896Z,0.00
2018-05-02T01:07:08.919Z,0.00
2018-05-02T01:08:08.927Z,0.00
2018-05-02T01:09:08.950Z,0.00
2018-05-02T01:10:08.963Z,0.00
2018-05-02T01:11:08.985Z,0.00
2018-05-02T01:12:09.001Z,0.00
2018-05-02T01:13:09.015Z,0.00
2018-05-02T01:14:09.022Z,0.00
2018-05-02T01:15:09.039Z,0.00
2018-05-02T01:16:09.056Z,0.00
2018-05-02T01:17:09.073Z,0.00
2018-05-02T01:18:09.088Z,0.00
2018-05-02T01:19:09.108Z,0.00
2018-05-02T01:20:09.128Z,0.00
2018-05-02T01:21:09.144Z,0.00
2018-05-02T01:22:09.153Z,0.00
2018-05-02T01:23:09.173Z,0.00
2018-05-02T01:24:09.183Z,0.00
2018-05-02T01:25:09.198Z,0.00
2018-05-02T01:26:09.215Z,0.00
2018-05-02T01:27:09.229Z,0.00
2018-05-02T01:28:09.249Z,0.00
2018-05-02T01:29:09.267Z,0.00
2018-05-02T01:30:09.279Z,0.00
2018-05-02T01:31:09.299Z,0.00
2018-05-02T01:32:09.316Z,0.00
2018-05-02T01:33:09.330Z,0.00
2018-05-02T01:34:09.341Z,0.00
2018-05-02T01:35:09.365Z,0.00
2018-05-02T01:36:09.377Z,0.00
2018-05-02T01:37:09.394Z,0.00
2018-05-02T01:38:09.405Z,0.00
2018-05-02T01:39:09.421Z,0.00
2018-05-02T01:40:09.441Z,0.00
2018-05-02T01:41:09.455Z,0.00
2018-05-02T01:42:09.470Z,0.00
2018-05-02T01:43:09.491Z,0.00
2018-05-02T01:44:09.499Z,0.00
2018-05-02T01:45:09.516Z,0.00
2018-05-02T01:46:09.543Z,0.00
2018-05-02T01:47:09.552Z,0.00
2018-05-02T03:47:48.630Z,0.00
2018-05-02T03:48:48.612Z,0.00
2018-05-02T03:50:41.553Z,0.00
2018-05-02T03:51:41.519Z,0.00
2018-05-02T03:53:34.450Z,0.00
2018-05-02T03:54:34.430Z,0.00
2018-05-02T03:56:27.369Z,0.00
2018-05-02T03:57:27.364Z,0.00
2018-05-02T03:59:20.293Z,0.00
2018-05-02T04:00:20.279Z,0.00
2018-05-02T04:02:13.196Z,0.00
2018-05-02T04:03:13.198Z,0.00
2018-05-02T04:05:06.163Z,5.63
2018-05-02T04:06:06.133Z,5.63
2018-05-02T04:07:59.050Z,5.63
2018-05-02T04:08:59.064Z,5.63
2018-05-02T04:10:51.987Z,5.63
2018-05-02T04:11:51.980Z,5.63
2018-05-02T04:13:44.902Z,5.63
2018-05-02T04:14:44.900Z,11.25
2018-05-02T04:16:37.849Z,11.25
2018-05-02T04:17:37.829Z,11.25
2018-05-02T04:19:30.779Z,11.25
2018-05-02T04:20:30.772Z,11.25
2018-05-02T04:22:23.683Z,16.88
2018-05-02T04:23:23.686Z,16.88
2018-05-02T04:25:16.630Z,16.88
2018-05-02T04:26:16.626Z,16.88
2018-05-02T04:27:16.634Z,22.50
2018-05-02T04:28:16.650Z,22.50
2018-05-02T04:29:16.659Z,22.50
2018-05-02T04:30:16.680Z,22.50
2018-05-02T04:31:16.694Z,28.13
2018-05-02T04:32:16.709Z,39.38
2018-05-02T04:33:16.719Z,39.38
2018-05-02T04:34:16.743Z,28.13
2018-05-02T04:35:16.750Z,28.13
2018-05-02T04:36:16.775Z,33.75
2018-05-02T04:37:16.791Z,33.75
2018-05-02T04:38:16.799Z,95.63
2018-05-02T04:39:16.812Z,135.00
2018-05-02T04:40:16.828Z,73.13
2018-05-02T04:41:16.845Z,45.00
2018-05-02T04:42:16.862Z,39.38
2018-05-02T04:43:16.880Z,39.38
2018-05-02T04:44:16.897Z,50.63
2018-05-02T04:45:16.908Z,56.25
2018-05-02T04:46:16.923Z,50.63
2018-05-02T04:47:16.937Z,56.25
2018-05-02T04:48:16.952Z,78.75
2018-05-02T04:49:16.980Z,95.63
2018-05-02T04:50:16.986Z,112.50
2018-05-02T04:51:17.001Z,118.13
2018-05-02T04:52:17.024Z,129.38
2018-05-02T04:53:17.031Z,106.88
2018-05-02T04:54:17.049Z,61.88
2018-05-02T04:55:17.087Z,106.88
2018-05-02T04:56:17.078Z,163.13
2018-05-02T04:57:17.100Z,180.00
2018-05-02T04:58:17.118Z,95.63
2018-05-02T04:59:17.129Z,90.00
2018-05-02T05:00:17.140Z,90.00
2018-05-02T05:01:17.174Z,84.38
2018-05-02T05:02:17.177Z,61.88
2018-05-02T05:03:17.191Z,56.25
2018-05-02T05:04:17.205Z,90.00
2018-05-02T05:05:17.225Z,73.13
2018-05-02T05:06:17.237Z,67.50
2018-05-02T05:07:17.251Z,90.00
2018-05-02T05:08:17.272Z,95.63
2018-05-02T05:09:17.286Z,95.63
2018-05-02T05:10:17.307Z,78.75
2018-05-02T05:11:17.318Z,61.88
2018-05-02T05:12:17.385Z,61.88
2018-05-02T05:13:17.357Z,61.88
2018-05-02T05:14:17.367Z,61.88
2018-05-02T05:15:17.389Z,78.75
2018-05-02T05:16:17.398Z,78.75
2018-05-02T05:17:17.418Z,78.75
2018-05-02T05:18:17.435Z,135.00
2018-05-02T05:19:17.448Z,146.25
2018-05-02T05:20:17.469Z,230.63
2018-05-02T05:21:17.484Z,371.25
2018-05-02T05:22:17.517Z,208.13
2018-05-02T05:23:17.528Z,73.13
2018-05-02T05:24:17.539Z,73.13
2018-05-02T05:25:17.549Z,67.50
2018-05-02T05:26:17.566Z,67.50
2018-05-02T05:27:17.577Z,67.50
2018-05-02T05:28:17.648Z,67.50
2018-05-02T05:29:17.619Z,67.50
2018-05-02T05:30:17.630Z,67.50
2018-05-02T05:31:17.649Z,78.75
2018-05-02T05:32:17.667Z,95.63
2018-05-02T05:33:17.681Z,95.63
2018-05-02T05:34:17.709Z,90.00
2018-05-02T05:35:17.789Z,73.13
2018-05-02T05:36:17.737Z,73.13
2018-05-02T05:37:17.747Z,73.13
2018-05-02T05:38:17.765Z,78.75
2018-05-02T05:39:17.788Z,78.75
2018-05-02T05:40:17.800Z,78.75
2018-05-02T05:41:17.814Z,78.75
2018-05-02T05:42:17.838Z,84.38
2018-05-02T05:43:17.847Z,78.75
2018-05-02T05:44:17.875Z,78.75
2018-05-02T05:45:17.888Z,84.38
2018-05-02T05:46:17.902Z,95.63
2018-05-02T05:47:17.918Z,101.25
2018-05-02T05:48:17.934Z,90.00
2018-05-02T05:49:17.948Z,95.63
2018-05-02T05:50:17.967Z,106.88
2018-05-02T05:51:17.985Z,129.38
2018-05-02T05:52:18.006Z,101.25
2018-05-02T05:53:18.017Z,101.25
2018-05-02T05:54:18.187Z,95.63
2018-05-02T05:55:18.056Z,90.00
2018-05-02T05:56:18.068Z,90.00
2018-05-02T05:57:18.088Z,90.00
2018-05-02T05:58:18.106Z,90.00
2018-05-02T05:59:18.117Z,95.63
2018-05-02T06:00:18.132Z,95.63
2018-05-02T06:01:18.156Z,95.63
2018-05-02T06:02:18.180Z,101.25
2018-05-02T06:03:18.274Z,95.63
2018-05-02T06:04:18.203Z,101.25
2018-05-02T06:05:19.170Z,101.25
2018-05-02T06:06:18.239Z,101.25
2018-05-02T06:07:18.253Z,106.88
2018-05-02T06:08:18.276Z,157.50
2018-05-02T06:09:18.287Z,168.75
2018-05-02T06:10:18.319Z,326.25
2018-05-02T06:11:18.332Z,393.75
2018-05-02T06:12:18.354Z,354.38
2018-05-02T06:13:18.370Z,376.88
2018-05-02T06:14:18.381Z,568.13
2018-05-02T06:15:18.403Z,455.63
2018-05-02T06:16:18.419Z,230.63
2018-05-02T06:17:18.437Z,253.13
2018-05-02T06:18:18.460Z,315.00
2018-05-02T06:19:18.469Z,450.00
2018-05-02T06:20:18.486Z,455.63
2018-05-02T06:21:18.508Z,613.13
2018-05-02T06:22:18.521Z,579.38
2018-05-02T06:23:18.535Z,427.50
2018-05-02T06:24:18.557Z,258.75
2018-05-02T06:25:18.580Z,241.88
2018-05-02T06:26:18.600Z,320.63
2018-05-02T06:27:18.633Z,298.13
2018-05-02T06:28:18.631Z,292.50
2018-05-02T06:29:18.656Z,388.13
2018-05-02T06:30:18.670Z,433.13
2018-05-02T06:31:18.700Z,472.50
2018-05-02T06:32:18.725Z,545.63
2018-05-02T06:33:18.740Z,523.13
2018-05-02T06:34:18.759Z,596.25
2018-05-02T06:35:18.772Z,646.88
2018-05-02T06:36:18.800Z,675.00
2018-05-02T06:37:18.818Z,680.63
2018-05-02T06:38:18.846Z,680.63
2018-05-02T06:39:18.859Z,669.38
2018-05-02T06:40:18.888Z,658.13
2018-05-02T06:41:18.903Z,652.50
2018-05-02T06:42:18.921Z,641.25
2018-05-02T06:43:18.952Z,630.00
2018-05-02T06:44:18.976Z,624.38
2018-05-02T06:45:18.987Z,613.13
2018-05-02T06:46:19.008Z,601.88
2018-05-02T06:47:19.033Z,590.63
2018-05-02T06:48:19.059Z,573.75
2018-05-02T06:49:19.099Z,562.50
2018-05-02T06:50:19.159Z,551.25
2018-05-02T06:51:19.120Z,545.63
2018-05-02T06:52:19.147Z,540.00
2018-05-02T06:53:19.182Z,534.38
2018-05-02T06:54:19.204Z,528.75
2018-05-02T06:55:19.214Z,528.75
2018-05-02T06:56:19.238Z,523.13
2018-05-02T06:57:19.272Z,523.13
2018-05-02T06:58:19.302Z,517.50
2018-05-02T06:59:19.315Z,511.88
2018-05-02T07:00:19.335Z,511.88
2018-05-02T07:01:19.364Z,506.25
2018-05-02T07:02:19.396Z,500.63
2018-05-02T07:03:19.420Z,500.63
2018-05-02T07:04:19.446Z,495.00
2018-05-02T07:05:19.471Z,489.38
2018-05-02T07:06:19.495Z,483.75
2018-05-02T07:07:19.522Z,489.38
2018-05-02T07:08:19.548Z,483.75
2018-05-02T07:09:19.574Z,478.13
2018-05-02T07:10:19.607Z,472.50
2018-05-02T07:11:19.627Z,466.88
2018-05-02T07:12:19.652Z,461.25
2018-05-02T07:13:19.672Z,461.25
2018-05-02T07:14:19.703Z,455.63
2018-05-02T07:15:19.723Z,450.00
2018-05-02T07:16:19.752Z,450.00
2018-05-02T07:17:19.776Z,444.38
2018-05-02T07:18:19.800Z,438.75
2018-05-02T07:19:19.825Z,438.75
2018-05-02T07:20:19.862Z,433.13
2018-05-02T07:21:19.891Z,427.50
2018-05-02T07:22:19.908Z,427.50
2018-05-02T07:23:19.941Z,421.88
2018-05-02T07:24:19.963Z,421.88
2018-05-02T07:25:19.996Z,416.25
2018-05-02T07:26:20.033Z,416.25
2018-05-02T07:27:20.041Z,416.25
2018-05-02T07:28:20.067Z,410.63
2018-05-02T07:29:20.094Z,410.63
2018-05-02T07:30:20.126Z,405.00
2018-05-02T07:31:20.158Z,399.38
2018-05-02T07:32:20.178Z,399.38
2018-05-02T07:33:20.207Z,393.75
2018-05-02T07:34:20.233Z,388.13
2018-05-02T07:35:20.250Z,388.13
2018-05-02T07:36:20.282Z,382.50
2018-05-02T07:37:20.318Z,382.50
2018-05-02T07:38:20.339Z,376.88
2018-05-02T07:39:20.371Z,371.25
2018-05-02T07:40:20.388Z,371.25
2018-05-02T07:41:20.412Z,365.63
2018-05-02T07:42:20.436Z,360.00
2018-05-02T07:43:20.470Z,360.00
2018-05-02T07:44:20.489Z,360.00
2018-05-02T07:45:20.514Z,354.38
2018-05-02T07:46:20.539Z,348.75
2018-05-02T07:47:20.578Z,348.75
2018-05-02T07:48:20.602Z,343.13
2018-05-02T07:49:20.628Z,343.13
2018-05-02T07:50:20.656Z,337.50
2018-05-02T07:51:20.676Z,331.88
2018-05-02T07:52:20.709Z,331.88
2018-05-02T07:53:20.740Z,326.25
2018-05-02T07:54:20.754Z,320.63
2018-05-02T07:55:20.798Z,326.25
2018-05-02T07:56:20.832Z,320.63
2018-05-02T07:57:20.836Z,320.63
2018-05-02T07:58:20.855Z,315.00
2018-05-02T07:59:20.887Z,315.00
2018-05-02T08:00:20.901Z,315.00
2018-05-02T08:01:20.939Z,281.25
2018-05-02T08:02:20.975Z,213.75
2018-05-02T08:03:20.980Z,174.38
2018-05-02T08:04:21.013Z,174.38
2018-05-02T08:05:21.030Z,168.75
2018-05-02T08:06:21.061Z,168.75
2018-05-02T08:07:21.081Z,168.75
2018-05-02T08:08:21.106Z,168.75
2018-05-02T08:09:21.140Z,168.75
2018-05-02T08:10:21.171Z,163.13
2018-05-02T08:11:21.191Z,168.75
2018-05-02T08:12:21.228Z,168.75
2018-05-02T08:13:21.228Z,163.13
2018-05-02T08:14:26.377Z,168.75
2018-05-02T08:15:21.479Z,163.13
2018-05-02T08:16:21.499Z,168.75
2018-05-02T08:17:22.879Z,168.75
2018-05-02T08:18:21.352Z,168.75
2018-05-02T08:19:21.386Z,168.75
2018-05-02T08:20:21.477Z,168.75
2018-05-02T08:21:21.419Z,168.75
2018-05-02T08:22:21.458Z,168.75
2018-05-02T08:23:21.468Z,174.38
2018-05-02T08:24:21.497Z,168.75
2018-05-02T08:25:21.518Z,168.75
2018-05-02T08:26:21.612Z,174.38
2018-05-02T08:27:21.566Z,174.38
2018-05-02T08:28:21.593Z,174.38
2018-05-02T08:29:21.619Z,174.38
2018-05-02T08:30:21.632Z,174.38
2018-05-02T08:31:21.740Z,174.38
2018-05-02T08:32:21.683Z,174.38
2018-05-02T08:33:21.701Z,174.38
2018-05-02T08:34:21.735Z,180.00
2018-05-02T08:35:21.747Z,180.00
2018-05-02T08:36:21.786Z,180.00
2018-05-02T08:37:21.800Z,180.00
2018-05-02T08:38:21.822Z,180.00
2018-05-02T08:39:21.858Z,180.00
2018-05-02T08:40:21.864Z,180.00
2018-05-02T08:41:21.890Z,180.00
2018-05-02T08:42:21.912Z,185.63
2018-05-02T08:43:21.924Z,180.00
2018-05-02T08:44:21.978Z,180.00
2018-05-02T08:45:21.973Z,180.00
2018-05-02T08:46:22.006Z,180.00
2018-05-02T08:47:22.020Z,180.00
2018-05-02T08:48:22.049Z,180.00
2018-05-02T08:49:22.070Z,191.25
2018-05-02T08:50:22.089Z,185.63
2018-05-02T08:51:22.103Z,185.63
2018-05-02T08:52:22.135Z,185.63
2018-05-02T08:53:22.151Z,185.63
2018-05-02T08:54:22.184Z,185.63
2018-05-02T08:55:22.228Z,185.63
2018-05-02T08:56:22.219Z,191.25
2018-05-02T08:57:22.332Z,185.63
2018-05-02T08:58:22.271Z,191.25
2018-05-02T08:59:22.303Z,185.63
2018-05-02T09:00:22.315Z,191.25
2018-05-02T09:01:22.335Z,196.88
2018-05-02T09:02:22.359Z,196.88
2018-05-02T09:03:22.375Z,191.25
2018-05-02T09:04:22.401Z,191.25
2018-05-02T09:05:22.420Z,191.25
2018-05-02T09:06:22.445Z,191.25
2018-05-02T09:07:22.488Z,191.25
